Time;durP1;ratioP1;P1;durP2;ratioP2;P2;SDS_P1;SDS_P2;PMS_P1;PMS_P2;Temp;Humidity;BMP_temperature;BMP_pressure;BME280_temperature;BME280_humidity;BME280_pressure;Samples;Min_cycle;Max_cycle;Signal;HPM_P1;HPM_P2
2022/03/13 00:00:04;;;;;;;26.88;17.58;;;6.70;99.90;;;;;;5068701;28;20064;-75
2022/03/13 00:02:30;;;;;;;28.83;17.90;;;6.70;99.90;;;;;;5069056;28;20045;-74
2022/03/13 00:04:56;;;;;;;24.73;17.30;;;6.70;99.90;;;;;;5035557;28;20034;-74
2022/03/13 00:07:24;;;;;;;28.83;18.30;;;6.70;99.90;;;;;;5035227;28;20037;-75
2022/03/13 00:09:53;;;;;;;27.13;17.55;;;6.70;99.90;;;;;;5073202;28;20041;-75
2022/03/13 00:12:25;;;;;;;30.38;18.98;;;6.70;99.90;;;;;;5023521;28;20054;-74
2022/03/13 00:14:51;;;;;;;27.98;18.77;;;6.70;99.90;;;;;;5047812;28;20065;-73
2022/03/13 00:17:17;;;;;;;25.30;17.80;;;6.70;99.90;;;;;;5039095;28;20047;-74
2022/03/13 00:19:44;;;;;;;27.13;18.42;;;6.70;99.90;;;;;;5056401;28;20118;-75
2022/03/13 00:22:12;;;;;;;29.67;17.83;;;6.70;99.90;;;;;;5038951;28;20044;-75
2022/03/13 00:24:39;;;;;;;29.13;18.52;;;6.70;99.90;;;;;;5088536;28;20041;-74
2022/03/13 00:27:05;;;;;;;29.48;18.10;;;6.70;99.90;;;;;;5055126;28;20041;-75
2022/03/13 00:29:31;;;;;;;28.08;18.55;;;6.70;99.90;;;;;;5088963;28;20041;-74
2022/03/13 00:31:57;;;;;;;26.52;18.30;;;6.70;99.90;;;;;;5087992;28;20034;-75
2022/03/13 00:34:23;;;;;;;29.75;19.50;;;6.70;99.90;;;;;;5055030;28;20048;-75
2022/03/13 00:36:49;;;;;;;32.45;19.90;;;6.60;99.90;;;;;;5071759;28;20045;-74
2022/03/13 00:39:16;;;;;;;29.02;19.02;;;6.60;99.90;;;;;;5071787;28;20064;-73
2022/03/13 00:41:42;;;;;;;29.63;19.25;;;6.60;99.90;;;;;;5038264;28;20041;-73
2022/03/13 00:44:08;;;;;;;28.50;18.48;;;6.60;99.90;;;;;;5054946;28;20068;-75
2022/03/13 00:46:34;;;;;;;26.98;18.00;;;6.60;99.90;;;;;;5058579;28;20036;-74
2022/03/13 00:49:00;;;;;;;27.73;18.40;;;6.60;99.90;;;;;;5057816;28;20049;-73
2022/03/13 00:51:26;;;;;;;26.75;18.70;;;6.60;99.90;;;;;;5074262;28;20082;-75
2022/03/13 00:53:52;;;;;;;27.52;18.80;;;6.60;99.90;;;;;;5058428;28;20104;-75
2022/03/13 00:56:18;;;;;;;28.20;19.35;;;6.60;99.90;;;;;;5073898;28;20052;-74
2022/03/13 00:58:44;;;;;;;32.13;19.85;;;6.60;99.90;;;;;;5075040;28;20108;-74
2022/03/13 01:01:11;;;;;;;28.23;19.08;;;6.60;99.90;;;;;;5064566;28;20037;-74
2022/03/13 01:03:37;;;;;;;30.05;19.60;;;6.60;99.90;;;;;;5088319;28;20053;-75
2022/03/13 01:06:04;;;;;;;30.25;19.33;;;6.60;99.90;;;;;;5072156;28;20056;-74
2022/03/13 01:08:30;;;;;;;30.45;19.17;;;6.60;99.90;;;;;;5055866;28;20073;-75
2022/03/13 01:10:57;;;;;;;28.63;18.73;;;6.60;99.90;;;;;;5071526;28;20104;-74
2022/03/13 01:13:23;;;;;;;31.05;19.60;;;6.70;99.90;;;;;;5037814;28;20054;-75
2022/03/13 01:15:50;;;;;;;28.95;18.35;;;6.60;99.90;;;;;;5087912;28;20071;-74
2022/03/13 01:18:16;;;;;;;26.77;19.65;;;6.60;99.90;;;;;;5061935;28;20105;-73
2022/03/13 01:20:47;;;;;;;29.50;19.20;;;6.60;99.90;;;;;;5080744;28;20048;-74
2022/03/13 01:23:16;;;;;;;28.02;18.95;;;6.60;99.90;;;;;;5070149;28;20100;-75
2022/03/13 01:25:43;;;;;;;28.33;18.98;;;6.70;99.90;;;;;;5087384;28;20037;-75
2022/03/13 01:28:09;;;;;;;28.05;18.75;;;6.60;99.90;;;;;;5070836;28;20097;-72
2022/03/13 01:30:35;;;;;;;30.05;20.05;;;6.60;99.90;;;;;;5074018;28;20044;-75
2022/03/13 01:33:01;;;;;;;29.70;18.73;;;6.70;99.90;;;;;;5074187;28;20032;-74
2022/03/13 01:35:27;;;;;;;30.02;19.17;;;6.70;99.90;;;;;;5057389;28;20045;-74
2022/03/13 01:37:54;;;;;;;29.50;19.27;;;6.70;99.90;;;;;;5057154;28;20096;-72
2022/03/13 01:40:22;;;;;;;27.45;18.92;;;6.70;99.90;;;;;;5074691;28;20088;-73
2022/03/13 01:42:49;;;;;;;31.20;19.30;;;6.70;99.90;;;;;;5073777;28;20047;-75
2022/03/13 01:45:18;;;;;;;33.40;19.10;;;6.60;99.90;;;;;;5074992;28;20045;-73
2022/03/13 01:47:45;;;;;;;28.38;18.75;;;6.60;99.90;;;;;;5074128;28;20040;-73
2022/03/13 01:50:12;;;;;;;30.63;20.42;;;6.60;99.90;;;;;;5073598;28;20383;-75
2022/03/13 01:52:40;;;;;;;27.13;19.67;;;6.70;99.90;;;;;;5074022;28;20088;-75
2022/03/13 01:55:07;;;;;;;30.63;19.58;;;6.70;99.90;;;;;;5057465;28;20067;-75
2022/03/13 01:57:35;;;;;;;29.67;20.13;;;6.70;99.90;;;;;;5057095;28;20036;-74
2022/03/13 02:00:01;;;;;;;29.95;19.88;;;6.60;99.90;;;;;;5073846;28;20036;-75
2022/03/13 02:02:32;;;;;;;28.00;19.27;;;6.70;99.90;;;;;;5056806;28;20056;-75
2022/03/13 02:04:58;;;;;;;27.83;18.65;;;6.70;99.90;;;;;;5073584;28;20051;-75
2022/03/13 02:07:28;;;;;;;29.05;19.42;;;6.70;99.90;;;;;;5072703;28;20037;-74
2022/03/13 02:09:54;;;;;;;29.38;19.48;;;6.70;99.90;;;;;;5073206;28;20071;-75
2022/03/13 02:12:23;;;;;;;28.45;18.27;;;6.70;99.90;;;;;;5071892;28;20064;-75
2022/03/13 02:14:52;;;;;;;30.17;19.60;;;6.70;99.90;;;;;;5070725;28;20038;-72
2022/03/13 02:17:33;;;;;;;31.23;19.77;;;6.70;99.90;;;;;;5072637;28;20072;-75
2022/03/13 02:19:59;;;;;;;28.42;19.33;;;6.70;99.90;;;;;;5056232;28;20057;-75
2022/03/13 02:22:25;;;;;;;27.13;19.10;;;6.70;99.90;;;;;;5056389;28;20040;-75
2022/03/13 02:24:51;;;;;;;28.42;19.45;;;6.70;99.90;;;;;;5053955;28;20049;-72
2022/03/13 02:27:23;;;;;;;29.23;19.50;;;6.70;99.90;;;;;;5055805;28;20037;-75
2022/03/13 02:29:49;;;;;;;29.73;19.65;;;6.60;99.90;;;;;;5058418;28;20033;-75
2022/03/13 02:32:18;;;;;;;29.73;20.13;;;6.60;99.90;;;;;;5052252;28;20045;-75
2022/03/13 02:34:48;;;;;;;30.02;19.73;;;6.60;99.90;;;;;;5035936;28;20041;-75
2022/03/13 02:37:38;;;;;;;25.83;17.58;;;6.60;99.90;;;;;;5052255;28;20156;-75
2022/03/13 02:40:05;;;;;;;31.45;20.08;;;6.60;99.90;;;;;;5035891;28;20104;-75
2022/03/13 02:42:31;;;;;;;28.08;20.33;;;6.60;99.90;;;;;;5036228;28;20106;-74
2022/03/13 02:44:59;;;;;;;31.10;18.80;;;6.60;99.90;;;;;;5051979;28;20041;-75
2022/03/13 02:47:26;;;;;;;26.58;18.33;;;6.60;99.90;;;;;;5052702;28;20034;-75
2022/03/13 02:49:52;;;;;;;31.27;19.58;;;6.60;99.90;;;;;;5036436;28;20034;-74
2022/03/13 02:52:18;;;;;;;31.02;19.88;;;6.60;99.90;;;;;;5053432;28;20034;-73
2022/03/13 02:54:47;;;;;;;27.73;18.73;;;6.60;99.90;;;;;;5055483;28;20057;-75
2022/03/13 02:57:14;;;;;;;28.15;19.05;;;6.50;99.90;;;;;;5088596;28;20033;-72
2022/03/13 02:59:42;;;;;;;27.50;18.65;;;6.50;99.90;;;;;;5074395;28;20041;-74
2022/03/13 03:02:08;;;;;;;30.05;19.05;;;6.50;99.90;;;;;;5052253;28;20037;-73
2022/03/13 03:04:34;;;;;;;31.88;20.05;;;6.40;99.90;;;;;;5085544;28;20051;-72
2022/03/13 03:07:03;;;;;;;29.38;19.95;;;6.40;99.90;;;;;;5051523;28;20033;-75
2022/03/13 03:09:33;;;;;;;32.72;20.65;;;6.40;99.90;;;;;;5056696;28;20032;-75
2022/03/13 03:12:01;;;;;;;27.33;19.02;;;6.40;99.90;;;;;;5069236;28;20082;-75
2022/03/13 03:14:30;;;;;;;27.30;19.15;;;6.30;99.90;;;;;;5074303;28;20091;-74
2022/03/13 03:16:57;;;;;;;28.27;18.17;;;6.30;99.90;;;;;;5075253;28;20071;-74
2022/03/13 03:19:27;;;;;;;28.27;19.02;;;6.30;99.90;;;;;;5094668;28;20062;-75
2022/03/13 03:21:53;;;;;;;30.33;18.83;;;6.20;99.90;;;;;;5063150;28;20044;-75
2022/03/13 03:24:26;;;;;;;29.63;18.38;;;6.20;99.90;;;;;;5079494;28;20047;-75
2022/03/13 03:27:01;;;;;;;28.98;19.02;;;6.20;99.90;;;;;;5059960;28;20091;-75
2022/03/13 03:29:28;;;;;;;30.67;19.77;;;6.20;99.90;;;;;;5047825;28;20085;-74
2022/03/13 03:31:55;;;;;;;27.60;18.27;;;6.10;99.90;;;;;;5089717;28;20033;-75
2022/03/13 03:34:23;;;;;;;30.52;20.05;;;6.00;99.90;;;;;;5089776;28;20037;-74
2022/03/13 03:36:56;;;;;;;27.33;18.75;;;6.00;99.90;;;;;;5057499;28;20045;-75
2022/03/13 03:39:23;;;;;;;29.15;19.05;;;6.00;99.90;;;;;;5055606;28;20045;-75
2022/03/13 03:41:50;;;;;;;29.15;18.38;;;5.90;99.90;;;;;;5039695;28;20033;-74
2022/03/13 03:44:17;;;;;;;28.30;19.33;;;5.90;99.90;;;;;;5072874;28;20100;-74
2022/03/13 03:46:44;;;;;;;28.73;19.67;;;5.90;99.90;;;;;;5039680;28;20033;-75
2022/03/13 03:49:10;;;;;;;29.02;18.73;;;5.80;99.90;;;;;;5055926;28;20052;-75
2022/03/13 03:51:37;;;;;;;25.95;19.13;;;5.80;99.90;;;;;;5039355;28;20109;-75
2022/03/13 03:54:06;;;;;;;32.53;19.33;;;5.70;99.90;;;;;;5057398;28;20104;-74
2022/03/13 03:56:33;;;;;;;27.52;18.65;;;5.70;99.90;;;;;;5091535;28;20116;-75
2022/03/13 03:58:59;;;;;;;27.33;18.52;;;5.70;99.90;;;;;;5066331;28;20064;-73
2022/03/13 04:01:25;;;;;;;28.60;19.90;;;5.70;99.90;;;;;;5077988;28;20044;-72
2022/03/13 04:03:51;;;;;;;28.83;19.27;;;5.60;99.90;;;;;;5094674;28;20099;-74
2022/03/13 04:06:19;;;;;;;27.10;18.50;;;5.60;99.90;;;;;;5079465;28;20041;-74
2022/03/13 04:08:45;;;;;;;28.95;19.23;;;5.60;99.90;;;;;;5091175;28;20041;-74
2022/03/13 04:11:12;;;;;;;29.17;19.60;;;5.60;99.90;;;;;;5074906;28;20116;-75
2022/03/13 04:13:38;;;;;;;28.98;19.15;;;5.50;99.90;;;;;;5074429;28;20045;-75
2022/03/13 04:16:08;;;;;;;31.40;20.10;;;5.50;99.90;;;;;;5041145;28;20045;-75
2022/03/13 04:18:35;;;;;;;30.20;19.63;;;5.40;99.90;;;;;;5057611;28;20045;-75
2022/03/13 04:21:04;;;;;;;28.92;17.95;;;5.40;99.90;;;;;;5057960;28;20043;-74
2022/03/13 04:23:31;;;;;;;29.17;18.80;;;5.40;99.90;;;;;;5057584;28;20071;-74
2022/03/13 04:25:57;;;;;;;28.42;19.40;;;5.40;99.90;;;;;;5090660;28;20052;-75
2022/03/13 04:28:24;;;;;;;27.77;18.75;;;5.30;99.90;;;;;;5074313;28;20033;-75
2022/03/13 04:30:56;;;;;;;29.73;19.40;;;5.30;99.90;;;;;;5070053;28;20046;-76
2022/03/13 04:33:24;;;;;;;28.98;18.73;;;5.30;99.90;;;;;;5059360;28;20060;-75
2022/03/13 04:35:50;;;;;;;29.02;19.05;;;5.20;99.90;;;;;;5076688;28;20021;-73
2022/03/13 04:38:16;;;;;;;28.73;19.60;;;5.20;99.90;;;;;;5060081;28;20044;-75
2022/03/13 04:40:42;;;;;;;27.50;19.13;;;5.20;99.90;;;;;;5061174;28;20041;-75
2022/03/13 04:43:08;;;;;;;31.38;20.10;;;5.10;99.90;;;;;;5076257;28;20048;-75
2022/03/13 04:45:35;;;;;;;29.23;20.17;;;5.10;99.90;;;;;;5043772;28;20060;-74
2022/03/13 04:48:01;;;;;;;29.13;19.55;;;5.10;99.90;;;;;;5059658;28;20049;-76
2022/03/13 04:50:27;;;;;;;28.05;19.13;;;5.10;99.90;;;;;;5059386;28;20063;-74
2022/03/13 04:52:53;;;;;;;31.48;19.58;;;5.10;99.90;;;;;;5093767;28;20040;-75
2022/03/13 04:55:31;;;;;;;28.52;19.20;;;5.10;99.90;;;;;;5059926;28;20032;-74
2022/03/13 04:57:57;;;;;;;30.73;19.52;;;5.00;99.90;;;;;;5068137;28;20030;-74
2022/03/13 05:00:27;;;;;;;29.52;19.20;;;5.00;99.90;;;;;;5040169;28;20022;-76
2022/03/13 05:02:55;;;;;;;29.58;18.90;;;5.00;99.90;;;;;;5054769;28;20034;-76
2022/03/13 05:05:22;;;;;;;29.15;19.40;;;4.90;99.90;;;;;;5053643;28;20034;-76
2022/03/13 05:07:49;;;;;;;30.42;19.00;;;4.90;99.90;;;;;;5053063;28;20066;-75
2022/03/13 05:10:18;;;;;;;30.30;19.77;;;4.90;99.90;;;;;;5036902;28;20036;-74
2022/03/13 05:12:45;;;;;;;28.10;18.92;;;4.90;99.90;;;;;;5052844;28;20046;-74
2022/03/13 05:15:11;;;;;;;29.42;20.20;;;4.90;99.90;;;;;;5037627;28;20041;-76
2022/03/13 05:17:38;;;;;;;30.60;18.95;;;4.80;99.90;;;;;;5052754;28;20029;-74
2022/03/13 05:20:05;;;;;;;29.05;18.98;;;4.90;99.90;;;;;;5053245;28;20041;-73
2022/03/13 05:22:31;;;;;;;29.50;19.23;;;4.80;99.90;;;;;;5052992;28;20049;-74
2022/03/13 05:24:57;;;;;;;27.05;18.40;;;4.80;99.90;;;;;;5052838;28;20129;-74
2022/03/13 05:27:23;;;;;;;27.70;18.48;;;4.70;99.90;;;;;;5069152;28;20038;-73
2022/03/13 05:29:49;;;;;;;26.80;17.45;;;4.70;99.90;;;;;;5069831;28;20041;-76
2022/03/13 05:32:15;;;;;;;27.27;17.60;;;4.70;99.90;;;;;;5037200;28;20068;-74
2022/03/13 05:34:42;;;;;;;28.55;17.45;;;4.60;99.90;;;;;;5053147;28;20034;-74
2022/03/13 05:37:08;;;;;;;27.45;17.88;;;4.60;99.90;;;;;;5069623;28;20076;-75
2022/03/13 05:39:35;;;;;;;27.20;17.42;;;4.60;99.90;;;;;;5052879;28;20033;-75
2022/03/13 05:42:04;;;;;;;23.30;16.95;;;4.60;99.90;;;;;;5036358;28;20042;-75
2022/03/13 05:44:31;;;;;;;27.55;17.13;;;4.60;99.90;;;;;;5069286;28;20038;-74
2022/03/13 05:46:57;;;;;;;25.33;17.67;;;4.60;99.90;;;;;;5053151;28;20136;-74
2022/03/13 05:49:23;;;;;;;26.88;17.95;;;4.60;99.90;;;;;;5052420;28;20065;-74
2022/03/13 05:51:49;;;;;;;28.23;18.17;;;4.60;99.90;;;;;;5036749;28;20033;-76
2022/03/13 05:54:15;;;;;;;25.73;18.13;;;4.70;99.90;;;;;;5071840;28;20034;-75
2022/03/13 05:56:41;;;;;;;29.08;17.65;;;4.70;99.90;;;;;;5051816;28;20053;-75
2022/03/13 05:59:09;;;;;;;25.38;17.08;;;4.70;99.90;;;;;;5085146;28;20045;-74
2022/03/13 06:01:35;;;;;;;31.10;17.05;;;4.70;99.90;;;;;;5068951;28;20037;-74
2022/03/13 06:04:01;;;;;;;27.95;18.50;;;4.70;99.90;;;;;;5052329;28;20101;-74
2022/03/13 06:06:27;;;;;;;28.85;17.50;;;4.70;99.90;;;;;;5052371;28;20021;-74
2022/03/13 06:08:53;;;;;;;24.02;16.30;;;4.70;99.90;;;;;;5019198;28;20045;-74
2022/03/13 06:11:19;;;;;;;26.08;16.63;;;4.70;99.90;;;;;;5051748;28;20026;-74
2022/03/13 06:13:45;;;;;;;25.13;16.88;;;4.70;99.90;;;;;;5052013;28;20056;-75
2022/03/13 06:16:15;;;;;;;26.00;16.30;;;4.70;99.90;;;;;;5035994;28;20045;-75
2022/03/13 06:18:41;;;;;;;25.52;17.83;;;4.70;99.90;;;;;;5036459;28;20133;-74
2022/03/13 06:21:07;;;;;;;27.10;16.65;;;4.70;99.90;;;;;;5051962;28;20038;-74
2022/03/13 06:23:33;;;;;;;27.15;17.25;;;4.70;99.90;;;;;;5018958;28;20042;-74
2022/03/13 06:26:00;;;;;;;26.73;17.65;;;4.80;99.90;;;;;;5051231;28;20069;-75
2022/03/13 06:28:26;;;;;;;24.95;16.40;;;4.80;99.90;;;;;;5052219;28;20021;-75
2022/03/13 06:30:55;;;;;;;26.80;17.20;;;4.80;99.90;;;;;;5035888;28;20465;-76
2022/03/13 06:33:22;;;;;;;27.15;16.52;;;4.80;99.90;;;;;;5051816;28;20033;-76
2022/03/13 06:35:50;;;;;;;25.55;16.45;;;4.80;99.90;;;;;;5051221;28;20096;-75
2022/03/13 06:38:17;;;;;;;25.48;16.67;;;4.80;99.90;;;;;;5034329;28;20076;-75
2022/03/13 06:40:43;;;;;;;25.45;16.63;;;4.90;99.90;;;;;;5068277;28;20038;-75
2022/03/13 06:43:09;;;;;;;22.60;15.50;;;4.90;99.90;;;;;;5051796;28;20053;-74
2022/03/13 06:45:35;;;;;;;23.92;16.83;;;4.90;99.90;;;;;;5068245;28;20065;-74
2022/03/13 06:48:01;;;;;;;23.98;15.30;;;5.00;99.90;;;;;;5035270;28;20036;-74
2022/03/13 06:50:27;;;;;;;25.67;16.77;;;5.00;99.90;;;;;;5047731;28;20041;-73
2022/03/13 06:52:54;;;;;;;31.25;17.52;;;5.10;99.90;;;;;;5052298;28;20026;-75
2022/03/13 06:55:22;;;;;;;27.25;17.15;;;5.10;99.90;;;;;;5035752;28;20045;-74
2022/03/13 06:57:49;;;;;;;23.15;16.13;;;5.20;99.90;;;;;;5044002;28;20038;-75
2022/03/13 07:00:16;;;;;;;25.83;17.63;;;5.20;99.90;;;;;;5087912;28;20048;-74
2022/03/13 07:02:43;;;;;;;23.50;15.75;;;5.30;99.90;;;;;;5054656;28;20053;-76
2022/03/13 07:05:09;;;;;;;25.67;16.00;;;5.30;99.90;;;;;;5070484;28;20095;-75
2022/03/13 07:07:35;;;;;;;26.02;16.60;;;5.40;99.90;;;;;;5054814;28;20077;-73
2022/03/13 07:10:01;;;;;;;25.17;16.33;;;5.40;99.90;;;;;;5054806;28;20041;-75
2022/03/13 07:12:28;;;;;;;26.10;16.30;;;5.50;99.90;;;;;;5052575;28;20430;-74
2022/03/13 07:14:56;;;;;;;24.23;16.17;;;5.50;99.90;;;;;;5052856;28;20051;-76
2022/03/13 07:17:23;;;;;;;27.02;16.95;;;5.60;99.90;;;;;;5069635;28;20097;-74
2022/03/13 07:19:49;;;;;;;23.23;16.50;;;5.60;99.90;;;;;;5038262;28;20047;-75
2022/03/13 07:22:16;;;;;;;26.02;16.98;;;5.60;99.90;;;;;;5088996;28;20037;-74
2022/03/13 07:24:43;;;;;;;24.55;16.33;;;5.70;99.90;;;;;;5088883;28;20034;-74
2022/03/13 07:27:09;;;;;;;25.85;16.38;;;5.70;99.90;;;;;;5057773;28;20066;-76
2022/03/13 07:29:35;;;;;;;24.95;16.45;;;5.80;99.90;;;;;;5074796;28;20044;-75
2022/03/13 07:32:02;;;;;;;24.50;16.42;;;5.90;99.90;;;;;;5074830;28;20029;-75
2022/03/13 07:34:28;;;;;;;27.60;16.50;;;5.90;99.90;;;;;;5057192;28;20068;-74
2022/03/13 07:36:54;;;;;;;25.08;16.48;;;6.00;99.90;;;;;;5073656;28;20043;-75
2022/03/13 07:39:22;;;;;;;27.23;17.08;;;6.10;99.90;;;;;;5073765;28;20024;-74
2022/03/13 07:41:49;;;;;;;22.23;15.73;;;6.20;99.90;;;;;;5074789;28;20033;-76
2022/03/13 07:44:15;;;;;;;26.17;15.70;;;6.40;99.90;;;;;;5074000;28;20041;-75
2022/03/13 07:46:41;;;;;;;23.70;15.75;;;6.50;99.90;;;;;;5042558;28;20055;-75
2022/03/13 07:49:07;;;;;;;23.75;15.98;;;6.70;99.90;;;;;;5086748;28;20029;-76
2022/03/13 07:51:34;;;;;;;23.83;14.82;;;6.80;99.90;;;;;;5087281;28;20052;-74
2022/03/13 07:54:01;;;;;;;20.45;13.68;;;7.00;99.90;;;;;;5053152;28;20075;-76
2022/03/13 07:56:28;;;;;;;21.15;14.70;;;7.10;99.90;;;;;;5054488;28;20064;-75
2022/03/13 07:58:54;;;;;;;20.98;14.15;;;7.30;99.90;;;;;;5037891;28;20064;-75
2022/03/13 08:01:20;;;;;;;22.30;14.32;;;7.50;99.90;;;;;;5086730;28;20037;-74
2022/03/13 08:03:47;;;;;;;20.17;14.07;;;7.70;99.90;;;;;;5053482;28;20100;-75
2022/03/13 08:06:13;;;;;;;20.50;13.73;;;7.90;99.90;;;;;;5056944;28;20095;-75
2022/03/13 08:08:40;;;;;;;22.70;14.13;;;8.00;99.90;;;;;;5090964;28;20095;-75
2022/03/13 08:11:05;;;;;;;21.88;13.55;;;8.00;99.90;;;;;;5090039;28;20034;-74
2022/03/13 08:13:32;;;;;;;19.92;12.85;;;8.00;99.90;;;;;;5073703;28;20036;-75
2022/03/13 08:15:58;;;;;;;18.63;12.88;;;8.10;99.90;;;;;;5057430;28;20068;-76
2022/03/13 08:18:24;;;;;;;18.65;12.95;;;8.10;99.90;;;;;;5090466;28;20494;-73
2022/03/13 08:20:50;;;;;;;23.52;13.45;;;8.10;99.90;;;;;;5040023;28;20041;-73
2022/03/13 08:23:16;;;;;;;18.52;12.65;;;8.10;99.90;;;;;;5073838;28;20060;-75
2022/03/13 08:25:42;;;;;;;20.35;13.23;;;8.20;99.90;;;;;;5057746;28;20057;-74
2022/03/13 08:28:08;;;;;;;21.25;13.77;;;8.20;99.90;;;;;;5057367;28;20037;-76
2022/03/13 08:30:35;;;;;;;18.55;13.45;;;8.30;99.90;;;;;;5060121;28;20045;-74
2022/03/13 08:33:01;;;;;;;19.65;13.32;;;8.30;99.90;;;;;;5042841;28;20109;-75
2022/03/13 08:35:28;;;;;;;21.75;13.65;;;8.40;99.90;;;;;;5059754;28;20108;-74
2022/03/13 08:37:55;;;;;;;19.65;13.00;;;8.60;99.50;;;;;;5059828;28;20041;-73
2022/03/13 08:40:25;;;;;;;20.50;13.25;;;8.80;98.80;;;;;;5057170;28;20056;-74
2022/03/13 08:42:52;;;;;;;19.38;12.55;;;9.00;96.80;;;;;;5056233;28;20048;-75
2022/03/13 08:45:18;;;;;;;19.42;13.02;;;9.20;95.50;;;;;;5056695;28;20064;-75
2022/03/13 08:47:44;;;;;;;19.40;13.20;;;9.30;92.50;;;;;;5039703;28;20033;-74
2022/03/13 08:50:11;;;;;;;19.95;13.10;;;9.40;90.30;;;;;;5072917;28;20105;-74
2022/03/13 08:52:37;;;;;;;23.50;13.13;;;9.60;88.40;;;;;;5056312;28;20041;-74
2022/03/13 08:55:04;;;;;;;20.55;13.73;;;9.80;86.90;;;;;;5039787;28;20079;-74
2022/03/13 08:57:30;;;;;;;22.33;13.52;;;10.00;84.90;;;;;;5039698;28;20021;-75
2022/03/13 08:59:57;;;;;;;21.77;12.85;;;10.20;82.30;;;;;;5072889;28;20025;-74
2022/03/13 09:02:23;;;;;;;18.55;12.60;;;10.30;80.30;;;;;;5040299;28;20033;-75
2022/03/13 09:04:50;;;;;;;18.33;12.50;;;10.50;78.90;;;;;;5037183;28;20041;-73
2022/03/13 09:07:16;;;;;;;17.27;12.50;;;10.70;76.60;;;;;;5038264;28;20046;-74
2022/03/13 09:09:43;;;;;;;18.77;12.60;;;10.90;76.90;;;;;;5053646;28;20073;-75
2022/03/13 09:12:10;;;;;;;19.13;12.82;;;11.00;75.40;;;;;;5069633;28;20053;-75
2022/03/13 09:14:38;;;;;;;20.58;12.95;;;11.10;75.20;;;;;;5070641;28;20113;-74
2022/03/13 09:17:04;;;;;;;19.63;12.52;;;11.30;74.70;;;;;;5069418;28;20045;-76
2022/03/13 09:19:30;;;;;;;17.55;12.85;;;11.30;73.70;;;;;;5070562;28;20101;-77
2022/03/13 09:21:56;;;;;;;19.85;12.93;;;11.40;72.80;;;;;;5054004;28;20049;-75
2022/03/13 09:24:22;;;;;;;18.27;12.50;;;11.40;72.80;;;;;;5055502;28;20038;-74
2022/03/13 09:26:48;;;;;;;18.25;13.20;;;11.50;72.80;;;;;;5055557;28;20045;-74
2022/03/13 09:29:14;;;;;;;20.38;12.55;;;11.50;71.50;;;;;;5072265;28;20026;-75
2022/03/13 09:31:41;;;;;;;20.38;12.68;;;11.70;71.80;;;;;;5072331;28;20044;-73
2022/03/13 09:34:07;;;;;;;18.92;12.45;;;11.80;70.80;;;;;;5072530;28;20033;-74
2022/03/13 09:36:37;;;;;;;21.27;12.57;;;12.00;70.70;;;;;;5038620;28;20032;-76
2022/03/13 09:39:05;;;;;;;18.83;12.50;;;12.20;70.60;;;;;;5072303;28;20122;-73
2022/03/13 09:41:31;;;;;;;18.15;12.82;;;12.30;68.50;;;;;;5022298;28;20034;-74
2022/03/13 09:43:57;;;;;;;16.85;11.82;;;12.30;67.70;;;;;;5071574;28;20049;-77
2022/03/13 09:46:23;;;;;;;17.95;11.73;;;12.40;67.10;;;;;;5039125;28;20033;-78
2022/03/13 09:48:52;;;;;;;21.67;13.20;;;12.50;66.50;;;;;;5054300;28;20034;-78
2022/03/13 09:51:18;;;;;;;20.17;12.55;;;12.60;66.20;;;;;;5055011;28;20041;-76
2022/03/13 09:53:44;;;;;;;19.95;12.00;;;12.70;65.80;;;;;;5039068;28;20082;-78
2022/03/13 09:56:10;;;;;;;23.83;12.60;;;12.80;65.70;;;;;;5071522;28;20055;-78
2022/03/13 09:58:36;;;;;;;18.35;12.52;;;12.90;65.60;;;;;;5071696;28;20045;-78
2022/03/13 10:01:03;;;;;;;16.48;12.32;;;13.00;65.40;;;;;;5071321;28;20046;-80
2022/03/13 10:03:29;;;;;;;16.77;12.00;;;12.90;65.10;;;;;;5086884;28;20073;-77
2022/03/13 10:05:58;;;;;;;16.92;12.32;;;12.90;64.70;;;;;;5053987;28;20045;-79
2022/03/13 10:08:29;;;;;;;20.65;12.82;;;12.90;65.50;;;;;;5075842;28;20049;-79
2022/03/13 10:10:55;;;;;;;18.60;12.68;;;12.90;65.00;;;;;;5071039;28;20069;-77
2022/03/13 10:13:42;;;;;;;18.55;12.77;;;12.90;64.00;;;;;;5038283;28;20080;-78
2022/03/13 10:16:19;;;;;;;18.33;12.82;;;13.00;63.80;;;;;;5021492;28;20070;-78
2022/03/13 10:18:46;;;;;;;18.83;12.15;;;13.00;64.30;;;;;;5071171;28;20045;-78
2022/03/13 10:21:16;;;;;;;19.75;13.07;;;13.10;63.20;;;;;;5054564;28;20037;-78
2022/03/13 10:23:43;;;;;;;20.30;12.95;;;13.10;63.20;;;;;;5037508;28;20101;-78
2022/03/13 10:26:09;;;;;;;18.10;12.43;;;13.20;62.60;;;;;;5037093;28;20060;-79
2022/03/13 10:28:38;;;;;;;18.83;11.65;;;13.30;62.80;;;;;;5038102;28;20056;-79
2022/03/13 10:31:05;;;;;;;18.58;12.68;;;13.40;62.50;;;;;;5038479;28;20029;-79
2022/03/13 10:33:54;;;;;;;17.35;12.23;;;13.40;61.90;;;;;;5054603;28;20022;-78
2022/03/13 10:36:33;;;;;;;17.92;12.48;;;13.60;60.90;;;;;;5071051;28;20057;-80
2022/03/13 10:39:02;;;;;;;19.33;12.43;;;13.60;60.50;;;;;;5052787;28;20068;-72
2022/03/13 10:41:47;;;;;;;20.25;12.65;;;13.60;60.40;;;;;;5037365;28;20053;-74
2022/03/13 10:44:16;;;;;;;20.30;13.00;;;13.70;59.80;;;;;;5069643;28;20030;-72
2022/03/13 10:46:42;;;;;;;17.33;13.00;;;13.70;60.90;;;;;;5052493;28;20026;-73
2022/03/13 10:49:09;;;;;;;18.13;12.57;;;13.70;60.60;;;;;;5069610;28;20042;-74
2022/03/13 10:51:45;;;;;;;18.38;12.63;;;13.60;60.10;;;;;;5036142;28;20034;-74
2022/03/13 10:54:32;;;;;;;17.15;12.30;;;13.80;59.90;;;;;;5069101;28;20037;-75
2022/03/13 10:57:10;;;;;;;21.42;12.13;;;13.90;59.70;;;;;;5037828;28;20053;-72
2022/03/13 10:59:37;;;;;;;18.83;12.55;;;14.00;59.10;;;;;;5052694;28;20037;-73
2022/03/13 11:02:33;;;;;;;18.15;12.63;;;14.10;58.90;;;;;;5069046;28;20045;-73
2022/03/13 11:05:00;;;;;;;19.10;12.75;;;14.30;58.30;;;;;;5019853;28;20106;-75
2022/03/13 11:07:27;;;;;;;20.25;12.35;;;14.40;58.70;;;;;;5042308;28;20025;-73
2022/03/13 11:09:56;;;;;;;17.67;12.85;;;14.70;58.40;;;;;;5055691;28;20036;-75
2022/03/13 11:12:23;;;;;;;20.13;12.65;;;14.90;57.60;;;;;;5072749;28;20033;-72
2022/03/13 11:14:55;;;;;;;18.48;12.85;;;15.10;57.50;;;;;;5055623;28;20068;-75
2022/03/13 11:17:30;;;;;;;22.15;13.10;;;15.20;57.40;;;;;;5039639;28;20029;-74
2022/03/13 11:19:58;;;;;;;17.08;12.23;;;15.40;56.80;;;;;;5066681;28;20100;-72
2022/03/13 11:22:26;;;;;;;19.00;12.77;;;15.50;56.20;;;;;;5055799;28;20495;-77
2022/03/13 11:25:06;;;;;;;21.27;13.95;;;15.50;55.70;;;;;;5039148;28;20036;-73
2022/03/13 11:27:35;;;;;;;21.05;12.80;;;15.50;55.80;;;;;;5059688;28;20062;-76
2022/03/13 11:30:05;;;;;;;18.27;12.75;;;15.50;56.30;;;;;;5059790;28;20033;-73
2022/03/13 12:04:17;;;;;;;19.77;13.10;;;16.80;53.20;;;;;;4797952;22;20050;-72
2022/03/13 12:06:50;;;;;;;20.00;12.65;;;16.90;52.40;;;;;;4987107;28;20106;-74
2022/03/13 12:09:30;;;;;;;17.85;12.38;;;17.00;52.70;;;;;;5020243;28;20038;-73
2022/03/13 12:11:57;;;;;;;;;;;17.20;52.50;;;;;;5003747;28;20034;-74
2022/03/13 12:15:00;;;;;;;18.77;13.45;;;17.20;50.90;;;;;;5003519;28;19908;-73
2022/03/13 12:17:42;;;;;;;17.98;12.93;;;17.30;51.50;;;;;;5003349;28;20050;-74
2022/03/13 12:20:19;;;;;;;20.05;12.85;;;17.40;51.90;;;;;;5002856;28;20053;-73
2022/03/13 12:22:54;;;;;;;19.02;13.20;;;17.50;52.30;;;;;;5002759;28;20022;-76
2022/03/13 12:25:25;;;;;;;20.90;13.20;;;17.60;51.30;;;;;;4986988;28;20107;-73
2022/03/13 12:27:54;;;;;;;18.20;13.02;;;17.70;50.70;;;;;;5003485;28;20045;-73
2022/03/13 12:30:29;;;;;;;18.80;12.93;;;17.70;50.30;;;;;;5019940;28;20038;-75
2022/03/13 12:33:03;;;;;;;19.40;13.02;;;17.70;50.50;;;;;;4986953;28;20022;-73
2022/03/13 12:35:30;;;;;;;18.92;12.57;;;17.50;50.50;;;;;;4986876;28;20022;-72
2022/03/13 12:38:00;;;;;;;19.30;12.90;;;17.30;50.90;;;;;;4986821;28;20065;-73
2022/03/13 12:40:30;;;;;;;18.73;13.18;;;17.20;51.10;;;;;;5002829;28;20069;-74
2022/03/13 12:43:04;;;;;;;18.38;12.38;;;17.30;51.30;;;;;;4986796;28;20038;-76
2022/03/13 12:45:33;;;;;;;17.27;12.82;;;17.50;51.10;;;;;;4986706;28;20023;-75
2022/03/13 12:48:04;;;;;;;16.07;12.10;;;17.60;50.80;;;;;;4986585;28;20041;-73
2022/03/13 12:50:37;;;;;;;15.90;12.02;;;17.60;50.40;;;;;;5000084;28;20030;-74
2022/03/13 12:53:04;;;;;;;17.67;12.32;;;17.70;50.90;;;;;;5003039;28;20094;-75
2022/03/13 12:55:31;;;;;;;18.50;12.45;;;17.70;50.60;;;;;;5002904;28;20077;-74
2022/03/13 12:57:59;;;;;;;18.25;13.02;;;17.80;50.70;;;;;;5002956;28;20022;-73
2022/03/13 13:00:35;;;;;;;16.38;12.05;;;18.00;50.70;;;;;;5003155;28;20026;-73
2022/03/13 13:03:08;;;;;;;16.92;12.63;;;18.20;49.60;;;;;;5002890;28;20116;-75
2022/03/13 13:05:34;;;;;;;16.85;11.80;;;18.30;49.30;;;;;;5002955;28;20042;-77
2022/03/13 13:16:00;;;;;;;16.60;12.27;;;18.40;49.90;;;;;;1169904;26;20160;-76